UTSB

Bukhara Airport

Bukhara, Uzbekistan
TAF UTSB 232300Z 2400/2424 VRB03KT 7000 NSC TEMPO 2400/2411 11010KT
Issued Valid From Valid To
Oct-23 @ 23:00 UTC
(6 hours ago)
Oct-24 @ 00:00 UTC
(5 hours ago)
Oct-25 @ 00:00 UTC
(in 19 hours)
Oct-24 @ 00:00 to Oct-25 @ 00:00
TAF UTSB 232300Z 2400/2424 VRB03KT 7000 NSC
Wind Visibility Clouds
Variable at 3 knots 7,001 meters
  • No significant clouds
Temporary Oct-24 @ 00:00 to Oct-24 @ 11:00
TEMPO 2400/2411 11010KT
Wind
110° at 10 knots
TAF UTSB 232300Z 2400/2424 VRB03KT 7000 NSC TEMPO 2400/2411 11010KT
Issued Oct-23 @ 23:00 UTC
(6 hours ago)
Valid From Oct-24 @ 00:00 UTC
(5 hours ago)
Valid To Oct-25 @ 00:00 UTC
(in 19 hours)
Oct-24 @ 00:00 - Oct-25 @ 00:00
Wind Visibility
Variable at 3 knots 7,001 meters
Clouds
  • No significant clouds
Temporary Oct-24 @ 00:00 - Oct-24 @ 11:00
Wind
110° at 10 knots